createdAt,value
2022-09-26T00:00:01.885Z,14.27
2022-09-26T00:01:12.416Z,14.22
2022-09-26T00:02:15.638Z,14.14
2022-09-26T00:03:20.754Z,14.16
2022-09-26T00:04:31.791Z,14.19
2022-09-26T00:05:33.486Z,14.17
2022-09-26T00:06:38.781Z,14.19
2022-09-26T00:07:43.507Z,14.16
2022-09-26T00:08:47.890Z,14.16
2022-09-26T00:09:51.118Z,13.85
2022-09-26T00:10:58.350Z,13.91
2022-09-26T00:12:05.822Z,13.85
2022-09-26T00:13:13.226Z,13.95
2022-09-26T00:14:20.429Z,13.90
2022-09-26T00:15:24.692Z,14.04
2022-09-26T00:16:28.358Z,13.98
2022-09-26T00:17:33.267Z,14.00
2022-09-26T00:18:36.240Z,13.99
2022-09-26T00:19:39.642Z,14.04
2022-09-26T00:20:42.727Z,14.04
2022-09-26T00:21:46.198Z,14.07
2022-09-26T00:22:48.589Z,14.01
2022-09-26T00:23:52.140Z,14.08
2022-09-26T00:24:58.501Z,14.16
2022-09-26T00:26:04.887Z,14.14
2022-09-26T00:27:08.468Z,14.13
2022-09-26T00:28:11.868Z,14.14
2022-09-26T00:29:16.618Z,13.90
2022-09-26T00:30:20.192Z,13.95
2022-09-26T00:31:26.875Z,14.06
2022-09-26T00:32:31.313Z,14.01
2022-09-26T00:33:37.124Z,13.85
2022-09-26T00:34:41.986Z,13.96
2022-09-26T00:35:47.579Z,13.99
2022-09-26T00:36:51.084Z,14.04
2022-09-26T00:37:54.590Z,14.06
2022-09-26T00:38:56.841Z,13.91
2022-09-26T00:40:02.113Z,14.01
2022-09-26T00:41:05.888Z,14.05
2022-09-26T00:42:12.152Z,14.10
2022-09-26T00:43:29.128Z,14.06
2022-09-26T00:44:38.598Z,13.99
2022-09-26T00:45:41.673Z,14.05
2022-09-26T00:46:46.969Z,14.05
2022-09-26T00:47:56.463Z,14.04
2022-09-26T00:49:20.611Z,14.04
2022-09-26T00:50:28.074Z,14.03
2022-09-26T00:51:32.634Z,13.99
2022-09-26T00:52:37.697Z,14.05
2022-09-26T00:53:43.660Z,14.09
2022-09-26T00:54:49.730Z,13.97
2022-09-26T00:55:55.312Z,14.04
2022-09-26T00:57:01.650Z,14.03
2022-09-26T00:58:11.306Z,14.08
2022-09-26T00:59:15.877Z,14.11
2022-09-26T01:00:19.570Z,14.16
2022-09-26T01:01:27.404Z,14.06
2022-09-26T01:02:32.028Z,14.08
2022-09-26T01:03:37.399Z,14.05
2022-09-26T01:04:43.296Z,14.17
2022-09-26T01:05:47.340Z,14.16
2022-09-26T01:06:49.800Z,14.13
2022-09-26T01:07:54.484Z,14.11
2022-09-26T01:09:01.189Z,14.03
2022-09-26T01:10:06.023Z,14.02
2022-09-26T01:11:13.623Z,14.10
2022-09-26T01:12:15.571Z,14.07
2022-09-26T01:13:18.973Z,13.91
2022-09-26T01:14:22.926Z,13.93
2022-09-26T01:15:28.391Z,13.95
2022-09-26T01:16:32.417Z,13.97
2022-09-26T01:17:37.521Z,14.01
2022-09-26T01:18:43.850Z,14.05
2022-09-26T01:19:51.693Z,14.15
2022-09-26T01:21:00.014Z,14.06
2022-09-26T01:22:08.428Z,13.97
2022-09-26T01:23:12.768Z,14.00
2022-09-26T01:24:24.200Z,14.02
2022-09-26T01:25:29.220Z,13.99
2022-09-26T01:26:45.311Z,13.97
2022-09-26T01:28:07.316Z,13.94
2022-09-26T01:29:11.939Z,13.95
2022-09-26T01:30:23.235Z,13.82
2022-09-26T01:31:29.736Z,13.94
2022-09-26T01:32:51.349Z,14.00
2022-09-26T01:33:58.495Z,14.04
2022-09-26T01:35:12.933Z,14.14
2022-09-26T01:36:21.039Z,14.05
2022-09-26T01:37:29.250Z,14.06
2022-09-26T01:38:37.424Z,14.08
2022-09-26T01:39:45.379Z,14.07
2022-09-26T01:40:50.492Z,14.09
2022-09-26T01:41:54.750Z,14.08
2022-09-26T01:43:00.876Z,14.03
2022-09-26T01:44:17.006Z,14.02
2022-09-26T01:45:21.991Z,14.06
2022-09-26T01:46:37.481Z,14.01
2022-09-26T01:47:45.599Z,13.95
2022-09-26T01:48:50.980Z,13.89
2022-09-26T01:50:00.758Z,13.95
2022-09-26T01:51:09.907Z,14.02
2022-09-26T01:52:20.515Z,13.97
2022-09-26T01:53:26.200Z,13.99
2022-09-26T01:54:33.370Z,14.03
2022-09-26T01:55:38.118Z,14.04
2022-09-26T01:56:42.500Z,14.05
2022-09-26T01:57:48.052Z,14.01
2022-09-26T01:58:56.923Z,13.98
2022-09-26T02:00:03.106Z,13.95
2022-09-26T02:01:09.330Z,13.97
2022-09-26T02:02:18.731Z,13.92
2022-09-26T02:03:23.136Z,13.94
2022-09-26T02:04:29.745Z,13.96
2022-09-26T02:05:34.779Z,13.97
2022-09-26T02:06:43.573Z,13.94
2022-09-26T02:07:48.559Z,13.88
2022-09-26T02:08:55.690Z,13.85
2022-09-26T02:10:01.192Z,13.87
2022-09-26T02:11:10.952Z,13.80
2022-09-26T02:12:19.167Z,13.79
2022-09-26T02:13:28.511Z,13.84
2022-09-26T02:14:33.385Z,13.82
2022-09-26T02:15:38.039Z,13.80
2022-09-26T02:16:50.484Z,13.75
2022-09-26T02:17:54.705Z,13.71
2022-09-26T02:18:59.980Z,13.59
2022-09-26T02:20:09.102Z,13.56
2022-09-26T02:21:16.040Z,13.59
2022-09-26T02:22:20.271Z,13.53
2022-09-26T02:23:23.921Z,13.51
2022-09-26T02:24:30.966Z,13.62
2022-09-26T02:25:34.862Z,13.64
2022-09-26T02:26:39.927Z,13.64
2022-09-26T02:27:43.114Z,13.57
2022-09-26T02:28:47.141Z,13.53
2022-09-26T02:29:52.420Z,13.47
2022-09-26T02:31:01.276Z,13.50
2022-09-26T02:32:08.158Z,13.57
2022-09-26T02:33:12.336Z,13.63
2022-09-26T02:34:15.809Z,13.66
2022-09-26T02:35:37.327Z,13.63
2022-09-26T02:36:40.826Z,13.63
2022-09-26T02:37:45.271Z,13.65
2022-09-26T02:38:49.090Z,13.59
2022-09-26T02:40:09.203Z,13.54
2022-09-26T02:41:23.141Z,13.52
2022-09-26T02:42:28.745Z,13.53
2022-09-26T02:43:40.084Z,13.56
2022-09-26T02:44:44.099Z,13.52
2022-09-26T02:45:48.503Z,13.51
2022-09-26T02:47:12.220Z,13.51
2022-09-26T02:48:19.164Z,13.55
2022-09-26T02:49:27.690Z,13.57
2022-09-26T02:50:43.207Z,13.56
2022-09-26T02:51:50.681Z,13.55
2022-09-26T02:52:56.795Z,13.56
2022-09-26T02:54:11.582Z,13.55
2022-09-26T02:55:28.067Z,13.59
2022-09-26T02:56:49.613Z,13.54
2022-09-26T02:58:01.997Z,13.51
2022-09-26T02:59:18.441Z,13.48
2022-09-26T03:00:26.705Z,13.41
2022-09-26T03:01:37.609Z,13.35
2022-09-26T03:02:48.803Z,13.32
2022-09-26T03:03:55.660Z,13.35
2022-09-26T03:05:05.556Z,13.36
2022-09-26T03:06:11.728Z,13.46
2022-09-26T03:07:16.935Z,13.55
2022-09-26T03:08:24.709Z,13.56
2022-09-26T03:09:31.257Z,13.52
2022-09-26T03:10:35.514Z,13.51
2022-09-26T03:11:40.353Z,13.56
2022-09-26T03:12:44.696Z,13.56
2022-09-26T03:13:48.522Z,13.59
2022-09-26T03:14:57.961Z,13.64
2022-09-26T03:16:00.373Z,13.62
2022-09-26T03:17:05.674Z,13.61
2022-09-26T03:18:10.923Z,13.59
2022-09-26T03:19:34.440Z,13.60
2022-09-26T03:20:37.732Z,13.61
2022-09-26T03:21:43.896Z,13.51
2022-09-26T03:22:47.191Z,13.44
2022-09-26T03:23:50.556Z,13.41
2022-09-26T03:24:53.642Z,13.35
2022-09-26T03:26:01.527Z,13.46
2022-09-26T03:27:07.021Z,13.52
2022-09-26T03:28:12.816Z,13.51
2022-09-26T03:29:18.421Z,13.50
2022-09-26T03:30:23.507Z,13.45
2022-09-26T03:31:31.839Z,13.48
2022-09-26T03:32:42.457Z,13.34
2022-09-26T03:33:48.015Z,13.26
2022-09-26T03:34:53.174Z,13.24
2022-09-26T03:35:56.789Z,13.22
2022-09-26T03:36:59.134Z,13.25
2022-09-26T03:38:02.431Z,13.30
2022-09-26T03:39:10.118Z,13.27
2022-09-26T03:40:30.363Z,13.22
2022-09-26T03:41:36.902Z,13.23
2022-09-26T03:42:46.706Z,13.22
2022-09-26T03:43:50.348Z,13.28
2022-09-26T03:44:54.282Z,13.29
2022-09-26T03:46:08.805Z,13.31
2022-09-26T03:47:13.202Z,13.34
2022-09-26T03:48:19.513Z,13.29
2022-09-26T03:49:23.892Z,13.35
2022-09-26T03:50:26.320Z,13.36
2022-09-26T03:51:31.034Z,13.35
2022-09-26T03:52:33.638Z,13.39
2022-09-26T03:53:39.348Z,13.42
2022-09-26T03:54:46.408Z,13.41
2022-09-26T03:55:51.241Z,13.45
2022-09-26T03:56:57.173Z,13.49
2022-09-26T03:58:01.553Z,13.34
2022-09-26T03:59:06.764Z,13.39
2022-09-26T04:00:09.996Z,13.44
2022-09-26T04:01:25.187Z,13.42
2022-09-26T04:02:28.778Z,13.51
2022-09-26T04:03:35.637Z,13.41
2022-09-26T04:04:39.453Z,13.44
2022-09-26T04:05:43.177Z,13.47
2022-09-26T04:06:49.161Z,13.46
2022-09-26T04:07:52.698Z,13.52
2022-09-26T04:08:56.816Z,13.57
2022-09-26T04:10:00.216Z,13.60
2022-09-26T04:11:04.821Z,13.53
2022-09-26T04:12:08.689Z,13.46
2022-09-26T04:13:33.742Z,13.47
2022-09-26T04:14:19.365Z,13.55
2022-09-26T04:15:25.472Z,13.57
2022-09-26T04:16:30.175Z,13.54
2022-09-26T04:17:35.625Z,13.42
2022-09-26T04:18:39.442Z,13.48
2022-09-26T04:19:42.638Z,13.55
2022-09-26T04:20:46.244Z,13.57
2022-09-26T04:21:50.574Z,13.61
2022-09-26T04:22:52.837Z,13.58
2022-09-26T04:23:59.980Z,13.57
2022-09-26T04:25:03.502Z,13.58
2022-09-26T04:26:08.573Z,13.62
2022-09-26T04:27:12.286Z,13.60
2022-09-26T04:28:16.837Z,13.63
2022-09-26T04:29:20.331Z,13.57
2022-09-26T04:30:25.414Z,13.58
2022-09-26T04:31:30.957Z,13.63
2022-09-26T04:32:36.288Z,13.68
2022-09-26T04:33:41.453Z,13.71
2022-09-26T04:34:44.958Z,13.73
2022-09-26T04:35:47.749Z,13.66
2022-09-26T04:36:54.524Z,13.61
2022-09-26T04:37:57.979Z,13.52
2022-09-26T04:39:03.480Z,13.62
2022-09-26T04:40:06.387Z,13.64
2022-09-26T04:41:12.766Z,13.62
2022-09-26T04:42:16.252Z,13.69
2022-09-26T04:43:18.682Z,13.61
2022-09-26T04:44:21.020Z,13.61
2022-09-26T04:45:24.144Z,13.61
2022-09-26T04:46:30.809Z,13.48
2022-09-26T04:47:32.261Z,13.51
2022-09-26T04:48:49.905Z,13.58
2022-09-26T04:49:54.849Z,13.63
2022-09-26T04:50:58.812Z,13.67
2022-09-26T04:52:04.996Z,13.68
2022-09-26T04:53:08.067Z,13.61
2022-09-26T04:54:18.143Z,13.68
2022-09-26T04:55:22.679Z,13.61
2022-09-26T04:56:26.987Z,13.65
2022-09-26T04:57:31.214Z,13.70
2022-09-26T04:58:34.682Z,13.50
2022-09-26T04:59:37.910Z,13.52
2022-09-26T05:00:48.803Z,13.53
2022-09-26T05:01:55.596Z,13.53
2022-09-26T05:03:03.277Z,13.60
2022-09-26T05:04:06.483Z,13.60
2022-09-26T05:05:10.387Z,13.58
2022-09-26T05:06:14.703Z,13.55
2022-09-26T05:07:19.804Z,13.60
2022-09-26T05:08:24.058Z,13.61
2022-09-26T05:09:34.190Z,13.67
2022-09-26T05:10:48.687Z,13.68
2022-09-26T05:11:52.071Z,13.69
2022-09-26T05:12:57.233Z,13.73
2022-09-26T05:13:59.921Z,13.68
2022-09-26T05:15:05.531Z,13.69
2022-09-26T05:16:11.385Z,13.67
2022-09-26T05:17:15.874Z,13.70
2022-09-26T05:18:20.298Z,13.68
2022-09-26T05:19:23.574Z,13.69
2022-09-26T05:20:29.716Z,13.69
2022-09-26T05:21:34.179Z,13.61
2022-09-26T05:22:36.903Z,13.63
2022-09-26T05:23:57.717Z,13.45
2022-09-26T05:25:19.686Z,13.50
2022-09-26T05:26:26.919Z,13.60
2022-09-26T05:27:31.833Z,13.59
2022-09-26T05:28:35.794Z,13.58
2022-09-26T05:29:38.492Z,13.53
2022-09-26T05:30:44.778Z,13.61
2022-09-26T05:31:47.476Z,13.62
2022-09-26T05:32:52.662Z,13.64
2022-09-26T05:34:00.602Z,13.64
2022-09-26T05:35:06.855Z,13.69
2022-09-26T05:36:12.126Z,13.71
2022-09-26T05:37:15.402Z,13.72
2022-09-26T05:38:19.237Z,13.74
2022-09-26T05:39:42.747Z,13.70
2022-09-26T05:41:09.192Z,13.65
2022-09-26T05:42:13.443Z,13.62
2022-09-26T05:43:16.960Z,13.71
2022-09-26T05:44:21.242Z,13.78
2022-09-26T05:45:24.439Z,13.76
2022-09-26T05:46:29.016Z,13.73
2022-09-26T05:47:36.310Z,13.69
2022-09-26T05:48:42.215Z,13.50
2022-09-26T05:49:47.361Z,13.54
2022-09-26T05:50:51.898Z,13.51
2022-09-26T05:51:58.343Z,13.58
2022-09-26T05:53:02.171Z,13.64
2022-09-26T05:54:05.867Z,13.60
2022-09-26T05:55:11.389Z,13.71
2022-09-26T05:56:33.164Z,13.73
2022-09-26T05:57:54.396Z,13.80
2022-09-26T05:58:59.422Z,13.84
2022-09-26T06:00:16.099Z,13.90
2022-09-26T06:01:21.922Z,13.93
2022-09-26T06:02:26.404Z,13.95
2022-09-26T06:03:46.956Z,13.92
2022-09-26T06:04:52.096Z,13.92
2022-09-26T06:06:08.177Z,13.95
2022-09-26T06:07:12.191Z,13.94
2022-09-26T06:08:17.438Z,13.97
2022-09-26T06:09:32.222Z,13.96
2022-09-26T06:10:51.798Z,13.94
2022-09-26T06:11:54.393Z,13.97
2022-09-26T06:12:59.330Z,13.87
2022-09-26T06:14:03.127Z,13.97
2022-09-26T06:15:10.964Z,14.00
2022-09-26T06:16:16.614Z,13.96
2022-09-26T06:17:20.250Z,13.98
2022-09-26T06:18:23.635Z,14.00
2022-09-26T06:19:25.859Z,14.00
2022-09-26T06:20:30.870Z,14.01
2022-09-26T06:21:36.118Z,14.06
2022-09-26T06:22:45.077Z,14.14
2022-09-26T06:23:48.757Z,14.16
2022-09-26T06:24:53.901Z,14.15
2022-09-26T06:25:57.226Z,14.12
2022-09-26T06:27:01.541Z,14.17
2022-09-26T06:28:06.649Z,14.20
2022-09-26T06:29:12.091Z,14.24
2022-09-26T06:30:17.533Z,14.15
2022-09-26T06:31:21.456Z,14.21
2022-09-26T06:32:44.607Z,14.23
2022-09-26T06:34:00.031Z,14.22
2022-09-26T06:35:11.862Z,14.23
2022-09-26T06:36:25.159Z,14.25
2022-09-26T06:37:28.278Z,14.32
2022-09-26T06:38:31.674Z,14.25
2022-09-26T06:39:37.756Z,14.33
2022-09-26T06:40:42.356Z,14.33
2022-09-26T06:41:45.922Z,14.40
2022-09-26T06:42:50.835Z,14.39
2022-09-26T06:43:55.987Z,14.43
2022-09-26T06:45:05.218Z,14.43
2022-09-26T06:46:09.387Z,14.45
2022-09-26T06:47:14.775Z,14.45
2022-09-26T06:48:22.414Z,14.53
2022-09-26T06:49:35.645Z,14.46
2022-09-26T06:50:42.406Z,14.51
2022-09-26T06:51:50.118Z,14.52
2022-09-26T06:52:56.062Z,14.58
2022-09-26T06:54:01.052Z,14.40
2022-09-26T06:55:05.086Z,14.43
2022-09-26T06:56:08.693Z,14.22
2022-09-26T06:57:15.382Z,14.28
2022-09-26T06:58:20.114Z,14.43
2022-09-26T06:59:24.985Z,14.51
2022-09-26T07:00:29.353Z,14.54
2022-09-26T07:01:40.885Z,14.65
2022-09-26T07:03:02.891Z,14.70
2022-09-26T07:04:27.903Z,14.58
2022-09-26T07:05:35.533Z,14.61
2022-09-26T07:06:39.254Z,14.67
2022-09-26T07:07:42.855Z,14.73
2022-09-26T07:09:02.053Z,14.57
2022-09-26T07:09:58.556Z,14.65
2022-09-26T07:12:24.475Z,14.74
2022-09-26T07:13:29.391Z,14.75
2022-09-26T07:14:34.001Z,14.82
2022-09-26T07:15:40.686Z,14.93
2022-09-26T07:16:45.750Z,15.03
2022-09-26T07:18:09.963Z,15.00
2022-09-26T07:19:33.040Z,14.95
2022-09-26T07:20:41.280Z,15.06
2022-09-26T07:21:52.350Z,15.21
2022-09-26T07:22:57.793Z,15.22
2022-09-26T07:24:02.834Z,15.28
2022-09-26T07:25:05.493Z,15.40
2022-09-26T07:26:08.966Z,15.43
2022-09-26T07:27:15.087Z,15.45
2022-09-26T07:28:18.385Z,15.44
2022-09-26T07:29:24.495Z,15.48
2022-09-26T07:30:28.672Z,15.66
2022-09-26T07:31:37.550Z,15.75
2022-09-26T07:32:47.264Z,15.79
2022-09-26T07:33:58.095Z,15.79
2022-09-26T07:35:03.276Z,15.87
2022-09-26T07:36:06.343Z,15.81
2022-09-26T07:37:09.271Z,15.79
2022-09-26T07:38:14.436Z,15.89
2022-09-26T07:39:21.825Z,15.88
2022-09-26T07:40:25.600Z,15.86
2022-09-26T07:41:31.096Z,15.82
2022-09-26T07:42:34.981Z,15.77
2022-09-26T07:44:41.179Z,15.60
2022-09-26T07:46:12.872Z,15.60
2022-09-26T07:47:37.256Z,15.72
2022-09-26T07:49:00.833Z,15.68
2022-09-26T07:50:23.255Z,15.93
2022-09-26T07:51:40.316Z,16.06
2022-09-26T07:52:46.514Z,15.86
2022-09-26T07:53:57.566Z,15.77
2022-09-26T07:55:20.812Z,15.83
2022-09-26T07:56:28.712Z,15.84
2022-09-26T07:57:37.366Z,15.87
2022-09-26T07:58:46.755Z,15.73
2022-09-26T07:59:57.555Z,15.74
2022-09-26T08:01:24.060Z,15.86
2022-09-26T08:02:38.022Z,15.92
2022-09-26T08:03:42.171Z,15.87
2022-09-26T08:04:47.782Z,15.97
2022-09-26T08:05:51.871Z,16.00
2022-09-26T08:06:56.350Z,15.99
2022-09-26T08:07:59.698Z,16.00
2022-09-26T08:09:04.832Z,15.92
2022-09-26T08:10:27.447Z,15.91
2022-09-26T08:11:50.482Z,15.98
2022-09-26T08:12:58.235Z,15.92
2022-09-26T08:14:09.561Z,15.97
2022-09-26T08:15:13.660Z,16.07
2022-09-26T08:16:22.387Z,16.12
2022-09-26T08:17:30.773Z,16.26
2022-09-26T08:18:34.108Z,16.24
2022-09-26T08:19:38.221Z,16.30
2022-09-26T08:20:41.509Z,16.33
2022-09-26T08:21:45.026Z,16.41
2022-09-26T08:22:48.355Z,16.26
2022-09-26T08:23:53.405Z,16.29
2022-09-26T08:25:10.532Z,16.36
2022-09-26T08:26:16.228Z,16.31
2022-09-26T08:27:24.954Z,16.35
2022-09-26T08:28:30.259Z,16.43
2022-09-26T08:29:34.387Z,16.37
2022-09-26T08:30:39.420Z,16.36
2022-09-26T08:31:43.117Z,16.44
2022-09-26T08:32:54.712Z,16.52
2022-09-26T08:33:57.984Z,16.59
2022-09-26T08:35:01.240Z,16.67
2022-09-26T08:36:22.532Z,16.83
2022-09-26T08:37:35.772Z,16.95
2022-09-26T08:38:57.562Z,17.02
2022-09-26T08:40:07.770Z,17.11
2022-09-26T08:41:25.668Z,17.19
2022-09-26T08:42:45.488Z,17.21
2022-09-26T08:43:59.637Z,17.20
2022-09-26T08:45:46.804Z,17.13
2022-09-26T08:47:04.301Z,17.12
2022-09-26T08:48:19.869Z,17.14
2022-09-26T08:49:42.915Z,17.19
2022-09-26T08:50:47.249Z,17.35
2022-09-26T08:51:52.056Z,17.73
2022-09-26T08:52:58.667Z,18.04
2022-09-26T08:54:05.959Z,18.42
2022-09-26T08:55:13.413Z,18.55
2022-09-26T08:56:20.899Z,18.66
2022-09-26T08:57:45.007Z,18.94
2022-09-26T08:58:52.100Z,19.02
2022-09-26T08:59:56.880Z,18.43
2022-09-26T09:01:03.043Z,18.57
2022-09-26T09:02:20.279Z,18.21
2022-09-26T09:03:34.226Z,18.16
2022-09-26T09:04:43.230Z,18.11
2022-09-26T09:05:48.158Z,18.51
2022-09-26T09:06:54.447Z,18.43
2022-09-26T09:07:59.180Z,18.56
2022-09-26T09:09:03.143Z,18.75
2022-09-26T09:10:10.220Z,19.03
2022-09-26T09:11:22.911Z,18.93
2022-09-26T09:12:33.479Z,19.13
2022-09-26T09:13:59.028Z,19.07
2022-09-26T09:15:25.678Z,19.17
2022-09-26T09:16:42.418Z,19.30
2022-09-26T09:18:13.272Z,19.33
2022-09-26T09:19:48.989Z,19.50
2022-09-26T09:21:13.719Z,19.76
2022-09-26T09:22:27.822Z,19.31
2022-09-26T09:23:38.330Z,19.25
2022-09-26T09:24:43.487Z,19.36
2022-09-26T09:25:50.140Z,19.63
2022-09-26T09:28:26.299Z,19.96
2022-09-26T09:29:36.266Z,20.26
2022-09-26T09:31:02.566Z,20.42
2022-09-26T09:32:13.806Z,20.66
2022-09-26T09:33:23.965Z,20.60
2022-09-26T09:34:31.942Z,20.82
2022-09-26T09:35:44.116Z,20.65
2022-09-26T09:37:07.155Z,20.99
2022-09-26T09:38:33.283Z,20.67
2022-09-26T09:39:40.960Z,20.80
2022-09-26T09:41:02.761Z,21.15
2022-09-26T09:42:26.954Z,21.36
2022-09-26T09:43:50.331Z,21.41
2022-09-26T09:44:58.174Z,21.28
2022-09-26T09:46:06.479Z,21.31
2022-09-26T09:47:15.164Z,21.31
2022-09-26T09:48:18.275Z,21.29
2022-09-26T09:49:26.079Z,21.62
2022-09-26T09:50:30.135Z,21.75
2022-09-26T09:51:40.799Z,21.73
2022-09-26T09:52:47.175Z,21.39
2022-09-26T09:53:55.210Z,21.79
2022-09-26T09:55:00.386Z,21.98
2022-09-26T09:56:07.540Z,22.07
2022-09-26T09:57:27.043Z,22.21
2022-09-26T09:58:49.090Z,22.53
2022-09-26T09:59:57.031Z,22.43
2022-09-26T10:01:07.307Z,22.05
2022-09-26T10:02:28.835Z,21.54
2022-09-26T10:03:56.125Z,21.70
2022-09-26T10:05:02.638Z,22.03
2022-09-26T10:06:08.571Z,21.75
2022-09-26T10:07:16.351Z,21.63
2022-09-26T10:09:40.896Z,22.12
2022-09-26T10:11:11.184Z,21.90
2022-09-26T10:12:18.857Z,21.98
2022-09-26T10:13:32.609Z,21.67
2022-09-26T10:14:45.830Z,21.64
2022-09-26T10:15:58.853Z,21.99
2022-09-26T10:17:23.523Z,22.02
2022-09-26T10:18:32.061Z,22.14
2022-09-26T10:19:44.654Z,22.37
2022-09-26T10:20:54.835Z,22.43
2022-09-26T10:22:00.217Z,22.77
2022-09-26T10:23:05.915Z,22.85
2022-09-26T10:24:28.331Z,22.93
2022-09-26T10:25:33.501Z,22.79
2022-09-26T10:26:40.501Z,21.89
2022-09-26T10:27:52.221Z,21.58
2022-09-26T10:28:56.811Z,21.69
2022-09-26T10:30:04.010Z,21.81
2022-09-26T10:31:09.337Z,22.03
2022-09-26T10:32:14.810Z,22.42
2022-09-26T10:33:24.567Z,22.57
2022-09-26T10:34:31.425Z,22.33
2022-09-26T10:35:45.775Z,22.19
2022-09-26T10:36:50.643Z,21.96
2022-09-26T10:38:00.520Z,22.01
2022-09-26T10:39:26.170Z,21.76
2022-09-26T10:40:48.894Z,21.65
2022-09-26T10:41:54.674Z,21.86
2022-09-26T10:42:59.711Z,21.71
2022-09-26T10:44:05.412Z,21.68
2022-09-26T10:45:31.114Z,21.72
2022-09-26T10:46:47.145Z,21.43
2022-09-26T10:48:02.471Z,21.46
2022-09-26T10:49:25.395Z,21.39
2022-09-26T10:50:30.956Z,21.16
2022-09-26T10:51:45.575Z,21.43
2022-09-26T10:52:55.451Z,21.55
2022-09-26T10:54:04.063Z,21.59
2022-09-26T10:55:09.561Z,21.81
2022-09-26T10:56:17.337Z,21.87
2022-09-26T10:57:23.778Z,21.87
2022-09-26T10:58:30.520Z,22.08
2022-09-26T10:59:37.570Z,21.96
2022-09-26T11:00:42.638Z,22.06
2022-09-26T11:01:57.304Z,22.09
2022-09-26T11:03:01.149Z,22.42
2022-09-26T11:04:12.723Z,22.24
2022-09-26T11:05:39.396Z,21.95
2022-09-26T11:06:50.309Z,21.93
2022-09-26T11:07:57.090Z,21.72
2022-09-26T11:09:08.390Z,21.79
2022-09-26T11:10:31.211Z,21.71
2022-09-26T11:11:42.870Z,21.52
2022-09-26T11:12:58.107Z,21.58
2022-09-26T11:14:09.399Z,21.66
2022-09-26T11:15:15.029Z,22.13
2022-09-26T11:16:21.337Z,22.51
2022-09-26T11:17:41.550Z,22.53
2022-09-26T11:18:54.142Z,22.41
2022-09-26T11:20:01.915Z,22.53
2022-09-26T11:21:23.070Z,22.40
2022-09-26T11:22:26.904Z,22.12
2022-09-26T11:23:48.478Z,22.11
2022-09-26T11:25:00.025Z,22.22
2022-09-26T11:26:10.412Z,22.28
2022-09-26T11:27:31.530Z,22.37
2022-09-26T11:28:37.743Z,22.59
2022-09-26T11:29:53.831Z,22.53
2022-09-26T11:31:00.148Z,22.39
2022-09-26T11:32:05.226Z,21.93
2022-09-26T11:33:19.378Z,21.79
2022-09-26T11:34:42.635Z,22.04
2022-09-26T11:36:05.365Z,21.84
2022-09-26T11:37:10.547Z,21.80
2022-09-26T11:38:34.716Z,21.87
2022-09-26T11:39:42.839Z,21.46
2022-09-26T11:41:02.385Z,21.64
2022-09-26T11:42:07.698Z,21.72
2022-09-26T11:43:32.654Z,21.83
2022-09-26T11:44:42.595Z,21.62
2022-09-26T11:47:24.600Z,21.32
2022-09-26T11:48:31.863Z,20.95
2022-09-26T11:49:56.454Z,20.91
2022-09-26T11:51:04.878Z,21.04
2022-09-26T11:52:13.816Z,20.90
2022-09-26T11:53:21.481Z,21.00
2022-09-26T11:54:35.960Z,21.28
2022-09-26T11:55:48.667Z,21.08
2022-09-26T11:56:56.046Z,20.89
2022-09-26T11:58:07.266Z,20.83
2022-09-26T11:59:24.656Z,20.94
2022-09-26T12:00:31.817Z,20.97
2022-09-26T12:01:40.126Z,20.96
2022-09-26T12:02:45.300Z,20.79
2022-09-26T12:04:08.697Z,20.75
2022-09-26T12:05:30.655Z,20.66
2022-09-26T12:06:38.059Z,20.66
2022-09-26T12:07:45.879Z,20.75
2022-09-26T12:08:55.261Z,20.70
2022-09-26T12:10:02.917Z,20.85
2022-09-26T12:11:11.774Z,20.90
2022-09-26T12:12:20.618Z,20.93
2022-09-26T12:13:33.659Z,21.23
2022-09-26T12:14:42.107Z,20.95
2022-09-26T12:15:52.037Z,21.10
2022-09-26T12:17:02.847Z,20.92
2022-09-26T12:18:16.045Z,20.81
2022-09-26T12:19:22.107Z,20.59
2022-09-26T12:20:33.099Z,20.82
2022-09-26T12:21:40.360Z,20.90
2022-09-26T12:22:48.601Z,21.08
2022-09-26T12:23:57.685Z,21.06
2022-09-26T12:25:03.722Z,20.74
2022-09-26T12:26:14.326Z,20.66
2022-09-26T12:27:19.494Z,20.91
2022-09-26T12:28:40.713Z,20.64
2022-09-26T12:29:46.255Z,20.49
2022-09-26T12:31:07.437Z,20.88
2022-09-26T12:32:28.664Z,21.14
2022-09-26T12:33:36.345Z,21.13
2022-09-26T12:34:46.343Z,21.24
2022-09-26T12:35:59.558Z,21.13
2022-09-26T12:37:08.795Z,20.90
2022-09-26T12:38:32.222Z,20.90
2022-09-26T12:39:54.241Z,20.54
2022-09-26T12:40:59.613Z,20.89
2022-09-26T12:42:23.928Z,20.90
2022-09-26T12:43:32.446Z,20.99
2022-09-26T12:44:37.937Z,21.12
2022-09-26T12:45:53.458Z,21.25
2022-09-26T12:46:59.440Z,21.41
2022-09-26T12:48:05.239Z,21.36
2022-09-26T12:49:18.276Z,21.12
2022-09-26T12:50:39.005Z,21.20
2022-09-26T12:51:48.166Z,21.30
2022-09-26T12:52:52.292Z,21.38
2022-09-26T12:53:57.356Z,21.32
2022-09-26T12:55:18.104Z,21.20
2022-09-26T12:56:24.721Z,21.27
2022-09-26T12:57:33.678Z,21.24
2022-09-26T12:58:55.461Z,21.26
2022-09-26T13:00:09.830Z,21.08
2022-09-26T13:01:32.540Z,21.08
2022-09-26T13:02:41.104Z,20.80
2022-09-26T13:03:55.010Z,20.76
2022-09-26T13:05:17.422Z,20.52
2022-09-26T13:06:34.296Z,20.46
2022-09-26T13:07:43.795Z,20.60
2022-09-26T13:09:05.018Z,20.77
2022-09-26T13:10:28.790Z,20.83
2022-09-26T13:11:50.357Z,20.88
2022-09-26T13:13:13.441Z,21.04
2022-09-26T13:14:18.373Z,21.02
2022-09-26T13:15:26.102Z,21.04
2022-09-26T13:16:33.190Z,21.03
2022-09-26T13:17:38.287Z,20.91
2022-09-26T13:18:45.600Z,20.75
2022-09-26T13:19:59.086Z,20.66
2022-09-26T13:21:07.708Z,20.66
2022-09-26T13:22:16.644Z,20.38
2022-09-26T13:23:21.819Z,20.30
2022-09-26T13:24:26.371Z,20.23
2022-09-26T13:25:44.865Z,20.17
2022-09-26T13:26:50.195Z,20.24
2022-09-26T13:27:58.471Z,20.09
2022-09-26T13:29:24.118Z,19.97
2022-09-26T13:30:19.567Z,19.96
2022-09-26T13:31:32.614Z,20.03
2022-09-26T13:32:41.908Z,20.09
2022-09-26T13:35:03.266Z,20.26
2022-09-26T13:36:12.344Z,19.94
2022-09-26T13:37:29.832Z,19.85
2022-09-26T13:38:41.075Z,19.91
2022-09-26T13:39:46.669Z,19.87
2022-09-26T13:40:52.256Z,19.69
2022-09-26T13:42:13.095Z,19.60
2022-09-26T13:43:35.413Z,19.63
2022-09-26T13:44:55.002Z,19.62
2022-09-26T13:46:06.580Z,19.74
2022-09-26T13:47:13.181Z,19.66
2022-09-26T13:48:23.095Z,19.73
2022-09-26T13:49:27.187Z,19.64
2022-09-26T13:50:34.930Z,19.65
2022-09-26T13:51:49.170Z,19.65
2022-09-26T13:53:08.524Z,19.65
2022-09-26T13:54:27.476Z,19.53
2022-09-26T13:55:34.382Z,19.55
2022-09-26T13:56:40.896Z,19.56
2022-09-26T13:57:49.291Z,19.55
2022-09-26T13:58:54.657Z,19.49
2022-09-26T14:00:02.767Z,19.55
2022-09-26T14:01:27.510Z,19.59
2022-09-26T14:02:32.839Z,19.45
2022-09-26T14:03:38.548Z,19.56
2022-09-26T14:04:42.574Z,19.59
2022-09-26T14:05:47.872Z,19.64
2022-09-26T14:07:30.796Z,19.71
2022-09-26T14:08:54.305Z,19.71
2022-09-26T14:10:05.751Z,19.59
2022-09-26T14:11:29.405Z,19.66
2022-09-26T14:12:34.904Z,19.76
2022-09-26T14:13:41.821Z,19.77
2022-09-26T14:14:46.792Z,19.60
2022-09-26T14:15:59.220Z,19.65
2022-09-26T14:17:05.217Z,19.63
2022-09-26T14:18:30.346Z,19.54
2022-09-26T14:19:36.762Z,19.51
2022-09-26T14:20:42.806Z,19.46
2022-09-26T14:22:03.725Z,19.45
2022-09-26T14:23:08.286Z,19.43
2022-09-26T14:24:21.815Z,19.32
2022-09-26T14:25:43.575Z,19.28
2022-09-26T14:27:07.029Z,19.21
2022-09-26T14:28:13.024Z,19.22
2022-09-26T14:29:28.477Z,19.10
2022-09-26T14:30:34.751Z,19.15
2022-09-26T14:31:41.563Z,19.10
2022-09-26T14:32:50.582Z,19.11
2022-09-26T14:34:34.190Z,19.04
2022-09-26T14:35:39.270Z,18.97
2022-09-26T14:36:43.289Z,18.88
2022-09-26T14:37:49.961Z,18.83
2022-09-26T14:38:53.988Z,18.76
2022-09-26T14:40:03.561Z,18.78
2022-09-26T14:41:13.139Z,18.78
2022-09-26T14:42:18.289Z,18.73
2022-09-26T14:43:24.705Z,18.65
2022-09-26T14:44:34.997Z,18.61
2022-09-26T14:45:38.597Z,18.56
2022-09-26T14:46:42.556Z,18.61
2022-09-26T14:47:58.560Z,18.66
2022-09-26T14:49:05.930Z,18.68
2022-09-26T14:50:22.155Z,18.66
2022-09-26T14:51:30.209Z,18.63
2022-09-26T14:52:37.547Z,18.60
2022-09-26T14:53:41.663Z,18.65
2022-09-26T14:54:47.570Z,18.58
2022-09-26T14:55:52.521Z,18.54
2022-09-26T14:57:03.359Z,18.56
2022-09-26T14:58:15.337Z,18.55